sensor_id;sensor_type;location;lat;lon;timestamp;temperature;humidity
44223;DHT22;29895;48.804;9.386;2023-10-19T00:01:09;11.00;99.90
44223;DHT22;29895;48.804;9.386;2023-10-19T00:03:35;11.00;99.90
44223;DHT22;29895;48.804;9.386;2023-10-19T00:06:01;11.10;99.90
44223;DHT22;29895;48.804;9.386;2023-10-19T00:08:27;11.10;99.90
44223;DHT22;29895;48.804;9.386;2023-10-19T00:11:02;11.10;99.90
44223;DHT22;29895;48.804;9.386;2023-10-19T00:13:34;11.10;99.90
44223;DHT22;29895;48.804;9.386;2023-10-19T00:16:07;11.00;99.90
44223;DHT22;29895;48.804;9.386;2023-10-19T00:18:46;11.00;99.90
44223;DHT22;29895;48.804;9.386;2023-10-19T00:21:17;11.00;99.90
44223;DHT22;29895;48.804;9.386;2023-10-19T00:23:51;10.90;99.90
44223;DHT22;29895;48.804;9.386;2023-10-19T00:26:20;10.90;99.90
44223;DHT22;29895;48.804;9.386;2023-10-19T00:28:47;10.90;99.90
44223;DHT22;29895;48.804;9.386;2023-10-19T00:31:19;10.90;99.90
44223;DHT22;29895;48.804;9.386;2023-10-19T00:33:46;10.90;99.90
44223;DHT22;29895;48.804;9.386;2023-10-19T00:36:11;10.90;99.90
44223;DHT22;29895;48.804;9.386;2023-10-19T00:38:41;10.90;99.90
44223;DHT22;29895;48.804;9.386;2023-10-19T00:41:19;10.90;99.90
44223;DHT22;29895;48.804;9.386;2023-10-19T00:43:54;10.90;99.90
44223;DHT22;29895;48.804;9.386;2023-10-19T00:46:32;11.00;99.90
44223;DHT22;29895;48.804;9.386;2023-10-19T00:49:03;11.00;99.90
44223;DHT22;29895;48.804;9.386;2023-10-19T00:51:52;11.00;99.90
44223;DHT22;29895;48.804;9.386;2023-10-19T00:54:25;11.00;99.90
44223;DHT22;29895;48.804;9.386;2023-10-19T00:56:57;11.10;99.90
44223;DHT22;29895;48.804;9.386;2023-10-19T00:59:28;11.10;99.90
44223;DHT22;29895;48.804;9.386;2023-10-19T01:02:01;11.10;99.90
44223;DHT22;29895;48.804;9.386;2023-10-19T01:04:43;11.20;99.90
44223;DHT22;29895;48.804;9.386;2023-10-19T01:07:10;11.20;99.90
44223;DHT22;29895;48.804;9.386;2023-10-19T01:09:47;11.30;99.90
44223;DHT22;29895;48.804;9.386;2023-10-19T01:12:13;11.30;99.90
44223;DHT22;29895;48.804;9.386;2023-10-19T01:15:21;11.40;99.90
44223;DHT22;29895;48.804;9.386;2023-10-19T01:17:56;11.40;99.90
44223;DHT22;29895;48.804;9.386;2023-10-19T01:20:27;11.40;99.90
44223;DHT22;29895;48.804;9.386;2023-10-19T01:23:03;11.30;99.90
44223;DHT22;29895;48.804;9.386;2023-10-19T01:25:42;11.40;99.90
44223;DHT22;29895;48.804;9.386;2023-10-19T01:28:15;11.30;99.90
44223;DHT22;29895;48.804;9.386;2023-10-19T01:30:44;11.40;99.90
44223;DHT22;29895;48.804;9.386;2023-10-19T01:33:11;11.30;99.90
44223;DHT22;29895;48.804;9.386;2023-10-19T01:35:41;11.40;99.90
44223;DHT22;29895;48.804;9.386;2023-10-19T01:38:27;11.50;99.90
44223;DHT22;29895;48.804;9.386;2023-10-19T01:40:57;11.60;99.90
44223;DHT22;29895;48.804;9.386;2023-10-19T01:43:25;11.60;99.90
44223;DHT22;29895;48.804;9.386;2023-10-19T01:45:55;11.70;99.90
44223;DHT22;29895;48.804;9.386;2023-10-19T01:48:20;11.70;99.90
44223;DHT22;29895;48.804;9.386;2023-10-19T01:50:57;11.70;99.90
44223;DHT22;29895;48.804;9.386;2023-10-19T01:53:22;11.80;99.90
44223;DHT22;29895;48.804;9.386;2023-10-19T01:55:50;11.80;99.90
44223;DHT22;29895;48.804;9.386;2023-10-19T01:58:26;11.90;99.90
44223;DHT22;29895;48.804;9.386;2023-10-19T02:00:54;12.00;99.90
44223;DHT22;29895;48.804;9.386;2023-10-19T02:03:26;12.00;99.90
44223;DHT22;29895;48.804;9.386;2023-10-19T02:06:00;12.00;99.90
44223;DHT22;29895;48.804;9.386;2023-10-19T02:08:26;11.90;99.90
44223;DHT22;29895;48.804;9.386;2023-10-19T02:10:55;11.70;99.90
44223;DHT22;29895;48.804;9.386;2023-10-19T02:13:21;11.60;99.90
44223;DHT22;29895;48.804;9.386;2023-10-19T02:15:46;11.70;99.90
44223;DHT22;29895;48.804;9.386;2023-10-19T02:18:12;11.80;99.90
44223;DHT22;29895;48.804;9.386;2023-10-19T02:20:38;12.10;99.90
44223;DHT22;29895;48.804;9.386;2023-10-19T02:23:07;12.30;99.90
44223;DHT22;29895;48.804;9.386;2023-10-19T02:25:33;12.60;99.90
44223;DHT22;29895;48.804;9.386;2023-10-19T02:28:05;12.70;99.90
44223;DHT22;29895;48.804;9.386;2023-10-19T02:30:35;12.60;99.90
44223;DHT22;29895;48.804;9.386;2023-10-19T02:33:01;12.40;99.90
44223;DHT22;29895;48.804;9.386;2023-10-19T02:35:27;12.30;99.90
44223;DHT22;29895;48.804;9.386;2023-10-19T02:37:53;12.30;99.90
44223;DHT22;29895;48.804;9.386;2023-10-19T02:40:20;12.20;99.90
44223;DHT22;29895;48.804;9.386;2023-10-19T02:42:46;12.20;99.90
44223;DHT22;29895;48.804;9.386;2023-10-19T02:45:14;12.10;99.90
44223;DHT22;29895;48.804;9.386;2023-10-19T02:47:42;12.20;99.90
44223;DHT22;29895;48.804;9.386;2023-10-19T02:50:09;12.10;99.90
44223;DHT22;29895;48.804;9.386;2023-10-19T02:52:38;12.00;99.90
44223;DHT22;29895;48.804;9.386;2023-10-19T02:55:04;11.90;99.90
44223;DHT22;29895;48.804;9.386;2023-10-19T02:57:30;11.80;99.90
44223;DHT22;29895;48.804;9.386;2023-10-19T02:59:56;11.80;99.90
44223;DHT22;29895;48.804;9.386;2023-10-19T03:02:23;11.80;99.90
44223;DHT22;29895;48.804;9.386;2023-10-19T03:04:54;11.70;99.90
44223;DHT22;29895;48.804;9.386;2023-10-19T03:07:20;11.60;99.90
44223;DHT22;29895;48.804;9.386;2023-10-19T03:09:46;11.60;99.90
44223;DHT22;29895;48.804;9.386;2023-10-19T03:12:14;11.50;99.90
44223;DHT22;29895;48.804;9.386;2023-10-19T03:14:40;11.50;99.90
44223;DHT22;29895;48.804;9.386;2023-10-19T03:17:12;11.40;99.90
44223;DHT22;29895;48.804;9.386;2023-10-19T03:19:38;11.40;99.90
44223;DHT22;29895;48.804;9.386;2023-10-19T03:22:04;11.40;99.90
44223;DHT22;29895;48.804;9.386;2023-10-19T03:24:32;11.40;99.90
44223;DHT22;29895;48.804;9.386;2023-10-19T03:27:09;11.30;99.90
44223;DHT22;29895;48.804;9.386;2023-10-19T03:29:48;11.20;99.90
44223;DHT22;29895;48.804;9.386;2023-10-19T03:32:19;11.20;99.90
44223;DHT22;29895;48.804;9.386;2023-10-19T03:34:52;11.10;99.90
44223;DHT22;29895;48.804;9.386;2023-10-19T03:37:24;11.10;99.90
44223;DHT22;29895;48.804;9.386;2023-10-19T03:39:56;11.10;99.90
44223;DHT22;29895;48.804;9.386;2023-10-19T03:42:22;11.10;99.90
44223;DHT22;29895;48.804;9.386;2023-10-19T03:44:51;11.10;99.90
44223;DHT22;29895;48.804;9.386;2023-10-19T03:47:20;11.20;99.90
44223;DHT22;29895;48.804;9.386;2023-10-19T03:49:51;11.30;99.90
44223;DHT22;29895;48.804;9.386;2023-10-19T03:52:16;11.20;99.90
44223;DHT22;29895;48.804;9.386;2023-10-19T03:54:42;11.10;99.90
44223;DHT22;29895;48.804;9.386;2023-10-19T03:57:11;11.00;99.90
44223;DHT22;29895;48.804;9.386;2023-10-19T03:59:41;11.00;99.90
44223;DHT22;29895;48.804;9.386;2023-10-19T04:02:10;11.00;99.90
44223;DHT22;29895;48.804;9.386;2023-10-19T04:04:42;10.90;99.90
44223;DHT22;29895;48.804;9.386;2023-10-19T04:07:14;10.80;99.90
44223;DHT22;29895;48.804;9.386;2023-10-19T04:09:51;10.70;99.90
44223;DHT22;29895;48.804;9.386;2023-10-19T04:12:49;10.70;99.90
44223;DHT22;29895;48.804;9.386;2023-10-19T04:15:15;10.80;99.90
44223;DHT22;29895;48.804;9.386;2023-10-19T04:17:42;10.80;99.90
44223;DHT22;29895;48.804;9.386;2023-10-19T04:20:09;10.80;99.90
44223;DHT22;29895;48.804;9.386;2023-10-19T04:22:45;10.80;99.90
44223;DHT22;29895;48.804;9.386;2023-10-19T04:25:13;10.80;99.90
44223;DHT22;29895;48.804;9.386;2023-10-19T04:27:39;10.70;99.90
44223;DHT22;29895;48.804;9.386;2023-10-19T04:30:08;10.60;99.90
44223;DHT22;29895;48.804;9.386;2023-10-19T04:32:41;10.50;99.90
44223;DHT22;29895;48.804;9.386;2023-10-19T04:35:07;10.60;99.90
44223;DHT22;29895;48.804;9.386;2023-10-19T04:37:35;10.50;99.90
44223;DHT22;29895;48.804;9.386;2023-10-19T04:40:00;10.50;99.90
44223;DHT22;29895;48.804;9.386;2023-10-19T04:42:26;10.50;99.90
44223;DHT22;29895;48.804;9.386;2023-10-19T04:44:54;10.60;99.90
44223;DHT22;29895;48.804;9.386;2023-10-19T04:47:21;10.60;99.90
44223;DHT22;29895;48.804;9.386;2023-10-19T04:49:47;10.50;99.90
44223;DHT22;29895;48.804;9.386;2023-10-19T04:52:13;10.50;99.90
44223;DHT22;29895;48.804;9.386;2023-10-19T04:54:39;10.50;99.90
44223;DHT22;29895;48.804;9.386;2023-10-19T04:57:04;10.50;99.90
44223;DHT22;29895;48.804;9.386;2023-10-19T04:59:30;10.40;99.90
44223;DHT22;29895;48.804;9.386;2023-10-19T05:01:59;10.40;99.90
44223;DHT22;29895;48.804;9.386;2023-10-19T05:04:28;10.30;99.90
44223;DHT22;29895;48.804;9.386;2023-10-19T05:06:55;10.30;99.90
44223;DHT22;29895;48.804;9.386;2023-10-19T05:09:20;10.40;99.90
44223;DHT22;29895;48.804;9.386;2023-10-19T05:11:46;10.40;99.90
44223;DHT22;29895;48.804;9.386;2023-10-19T05:14:15;10.40;99.90
44223;DHT22;29895;48.804;9.386;2023-10-19T05:16:40;10.40;99.90
44223;DHT22;29895;48.804;9.386;2023-10-19T05:19:06;10.30;99.90
44223;DHT22;29895;48.804;9.386;2023-10-19T05:21:32;10.30;99.90
44223;DHT22;29895;48.804;9.386;2023-10-19T05:23:59;10.30;99.90
44223;DHT22;29895;48.804;9.386;2023-10-19T05:26:28;10.30;99.90
44223;DHT22;29895;48.804;9.386;2023-10-19T05:28:53;10.30;99.90
44223;DHT22;29895;48.804;9.386;2023-10-19T05:31:20;10.30;99.90
44223;DHT22;29895;48.804;9.386;2023-10-19T05:33:45;10.40;99.90
44223;DHT22;29895;48.804;9.386;2023-10-19T05:36:14;10.40;99.90
44223;DHT22;29895;48.804;9.386;2023-10-19T05:38:40;10.40;99.90
44223;DHT22;29895;48.804;9.386;2023-10-19T05:41:06;10.40;99.90
44223;DHT22;29895;48.804;9.386;2023-10-19T05:43:33;10.40;99.90
44223;DHT22;29895;48.804;9.386;2023-10-19T05:46:00;10.30;99.90
44223;DHT22;29895;48.804;9.386;2023-10-19T05:48:26;10.30;99.90
44223;DHT22;29895;48.804;9.386;2023-10-19T05:50:52;10.40;99.90
44223;DHT22;29895;48.804;9.386;2023-10-19T05:53:17;10.40;99.90
44223;DHT22;29895;48.804;9.386;2023-10-19T05:55:48;10.30;99.90
44223;DHT22;29895;48.804;9.386;2023-10-19T05:58:14;10.30;99.90
44223;DHT22;29895;48.804;9.386;2023-10-19T06:00:40;10.20;99.90
44223;DHT22;29895;48.804;9.386;2023-10-19T06:03:07;10.20;99.90
44223;DHT22;29895;48.804;9.386;2023-10-19T06:05:33;10.30;99.90
44223;DHT22;29895;48.804;9.386;2023-10-19T06:07:59;10.40;99.90
44223;DHT22;29895;48.804;9.386;2023-10-19T06:10:27;10.50;99.90
44223;DHT22;29895;48.804;9.386;2023-10-19T06:12:53;10.50;99.90
44223;DHT22;29895;48.804;9.386;2023-10-19T06:15:21;10.60;99.90
44223;DHT22;29895;48.804;9.386;2023-10-19T06:17:48;10.60;99.90
44223;DHT22;29895;48.804;9.386;2023-10-19T06:20:15;10.70;99.90
44223;DHT22;29895;48.804;9.386;2023-10-19T06:22:59;10.70;99.90
44223;DHT22;29895;48.804;9.386;2023-10-19T06:25:32;10.60;99.90
44223;DHT22;29895;48.804;9.386;2023-10-19T06:27:58;10.70;99.90
44223;DHT22;29895;48.804;9.386;2023-10-19T06:30:25;10.80;99.90
44223;DHT22;29895;48.804;9.386;2023-10-19T06:33:01;11.00;99.90
44223;DHT22;29895;48.804;9.386;2023-10-19T06:35:29;11.10;99.90
44223;DHT22;29895;48.804;9.386;2023-10-19T06:37:57;11.20;99.90
44223;DHT22;29895;48.804;9.386;2023-10-19T06:40:24;11.10;99.90
44223;DHT22;29895;48.804;9.386;2023-10-19T06:42:54;11.10;99.90
44223;DHT22;29895;48.804;9.386;2023-10-19T06:45:21;11.00;99.90
44223;DHT22;29895;48.804;9.386;2023-10-19T06:47:48;11.10;99.90
44223;DHT22;29895;48.804;9.386;2023-10-19T06:50:16;11.10;99.90
44223;DHT22;29895;48.804;9.386;2023-10-19T06:52:43;11.10;99.90
44223;DHT22;29895;48.804;9.386;2023-10-19T06:55:11;11.20;99.90
44223;DHT22;29895;48.804;9.386;2023-10-19T06:57:50;11.30;99.90
44223;DHT22;29895;48.804;9.386;2023-10-19T07:00:17;11.30;99.90
44223;DHT22;29895;48.804;9.386;2023-10-19T07:02:48;11.30;99.90
44223;DHT22;29895;48.804;9.386;2023-10-19T07:05:14;11.40;99.90
44223;DHT22;29895;48.804;9.386;2023-10-19T07:07:44;11.40;99.90
44223;DHT22;29895;48.804;9.386;2023-10-19T07:10:12;11.40;99.90
44223;DHT22;29895;48.804;9.386;2023-10-19T07:12:39;11.50;99.90
44223;DHT22;29895;48.804;9.386;2023-10-19T07:15:06;11.50;99.90
44223;DHT22;29895;48.804;9.386;2023-10-19T07:17:42;11.50;99.90
44223;DHT22;29895;48.804;9.386;2023-10-19T07:20:09;11.50;99.90
44223;DHT22;29895;48.804;9.386;2023-10-19T07:22:47;11.50;99.90
44223;DHT22;29895;48.804;9.386;2023-10-19T07:25:13;11.60;99.90
44223;DHT22;29895;48.804;9.386;2023-10-19T07:27:39;11.50;99.90
44223;DHT22;29895;48.804;9.386;2023-10-19T07:30:08;11.60;99.90
44223;DHT22;29895;48.804;9.386;2023-10-19T07:32:35;11.70;99.90
44223;DHT22;29895;48.804;9.386;2023-10-19T07:35:01;11.80;99.90
44223;DHT22;29895;48.804;9.386;2023-10-19T07:37:26;11.80;99.90
44223;DHT22;29895;48.804;9.386;2023-10-19T07:39:54;11.80;99.90
44223;DHT22;29895;48.804;9.386;2023-10-19T07:42:23;11.90;99.90
44223;DHT22;29895;48.804;9.386;2023-10-19T07:44:48;12.00;99.90
44223;DHT22;29895;48.804;9.386;2023-10-19T07:47:14;12.10;99.90
44223;DHT22;29895;48.804;9.386;2023-10-19T07:49:40;12.10;99.90
44223;DHT22;29895;48.804;9.386;2023-10-19T07:52:06;12.10;99.90
44223;DHT22;29895;48.804;9.386;2023-10-19T07:54:35;12.20;99.90
44223;DHT22;29895;48.804;9.386;2023-10-19T07:57:02;12.30;99.90
44223;DHT22;29895;48.804;9.386;2023-10-19T07:59:34;12.40;99.90
44223;DHT22;29895;48.804;9.386;2023-10-19T08:02:00;12.60;99.90
44223;DHT22;29895;48.804;9.386;2023-10-19T08:04:30;12.90;99.90
44223;DHT22;29895;48.804;9.386;2023-10-19T08:06:56;13.10;99.90
44223;DHT22;29895;48.804;9.386;2023-10-19T08:09:23;13.10;99.90
44223;DHT22;29895;48.804;9.386;2023-10-19T08:11:50;13.20;99.90
44223;DHT22;29895;48.804;9.386;2023-10-19T08:14:24;13.20;99.90
44223;DHT22;29895;48.804;9.386;2023-10-19T08:16:50;13.30;99.90
44223;DHT22;29895;48.804;9.386;2023-10-19T08:19:16;13.50;99.90
44223;DHT22;29895;48.804;9.386;2023-10-19T08:21:43;13.70;99.90
44223;DHT22;29895;48.804;9.386;2023-10-19T08:24:09;13.90;99.90
44223;DHT22;29895;48.804;9.386;2023-10-19T08:26:42;14.20;99.90
44223;DHT22;29895;48.804;9.386;2023-10-19T08:29:08;14.20;99.90
44223;DHT22;29895;48.804;9.386;2023-10-19T08:31:42;14.20;99.90
44223;DHT22;29895;48.804;9.386;2023-10-19T08:34:08;14.10;99.90
44223;DHT22;29895;48.804;9.386;2023-10-19T08:36:38;14.00;99.90
44223;DHT22;29895;48.804;9.386;2023-10-19T08:39:05;14.00;99.90
44223;DHT22;29895;48.804;9.386;2023-10-19T08:41:32;14.00;99.90
44223;DHT22;29895;48.804;9.386;2023-10-19T08:44:01;14.00;99.90
44223;DHT22;29895;48.804;9.386;2023-10-19T08:46:27;14.10;99.90
44223;DHT22;29895;48.804;9.386;2023-10-19T08:48:55;14.10;99.90
44223;DHT22;29895;48.804;9.386;2023-10-19T08:51:22;14.30;99.90
44223;DHT22;29895;48.804;9.386;2023-10-19T08:53:54;14.50;99.90
44223;DHT22;29895;48.804;9.386;2023-10-19T08:56:20;14.80;99.90
44223;DHT22;29895;48.804;9.386;2023-10-19T08:58:50;15.10;99.90
44223;DHT22;29895;48.804;9.386;2023-10-19T09:01:18;15.40;99.90
44223;DHT22;29895;48.804;9.386;2023-10-19T09:03:45;15.80;99.90
44223;DHT22;29895;48.804;9.386;2023-10-19T09:06:12;16.20;99.90
44223;DHT22;29895;48.804;9.386;2023-10-19T09:08:39;16.20;99.90
44223;DHT22;29895;48.804;9.386;2023-10-19T09:11:09;16.10;99.90
44223;DHT22;29895;48.804;9.386;2023-10-19T09:13:51;16.00;99.90
44223;DHT22;29895;48.804;9.386;2023-10-19T09:16:18;15.90;99.90
44223;DHT22;29895;48.804;9.386;2023-10-19T09:18:46;15.80;99.90
44223;DHT22;29895;48.804;9.386;2023-10-19T09:21:16;16.00;99.90
44223;DHT22;29895;48.804;9.386;2023-10-19T09:23:52;16.10;99.90
44223;DHT22;29895;48.804;9.386;2023-10-19T09:26:18;16.30;99.90
44223;DHT22;29895;48.804;9.386;2023-10-19T09:28:47;16.40;99.90
44223;DHT22;29895;48.804;9.386;2023-10-19T09:31:14;16.50;99.90
44223;DHT22;29895;48.804;9.386;2023-10-19T09:33:42;16.70;99.90
44223;DHT22;29895;48.804;9.386;2023-10-19T09:36:12;16.90;99.90
44223;DHT22;29895;48.804;9.386;2023-10-19T09:38:48;16.90;99.90
44223;DHT22;29895;48.804;9.386;2023-10-19T09:41:17;16.90;99.90
44223;DHT22;29895;48.804;9.386;2023-10-19T09:43:47;16.90;99.90
44223;DHT22;29895;48.804;9.386;2023-10-19T09:46:26;16.90;99.90
44223;DHT22;29895;48.804;9.386;2023-10-19T09:48:52;16.90;99.90
44223;DHT22;29895;48.804;9.386;2023-10-19T09:51:18;16.90;99.90
44223;DHT22;29895;48.804;9.386;2023-10-19T09:53:48;16.80;99.90
44223;DHT22;29895;48.804;9.386;2023-10-19T09:56:20;16.80;99.90
44223;DHT22;29895;48.804;9.386;2023-10-19T09:58:49;16.70;99.90
44223;DHT22;29895;48.804;9.386;2023-10-19T10:01:16;16.70;99.90
44223;DHT22;29895;48.804;9.386;2023-10-19T10:03:46;16.80;99.90
44223;DHT22;29895;48.804;9.386;2023-10-19T10:06:14;16.90;99.90
44223;DHT22;29895;48.804;9.386;2023-10-19T10:08:42;17.00;99.90
44223;DHT22;29895;48.804;9.386;2023-10-19T10:11:19;17.10;99.90
44223;DHT22;29895;48.804;9.386;2023-10-19T10:13:46;17.30;99.90
44223;DHT22;29895;48.804;9.386;2023-10-19T10:16:15;17.40;99.90
44223;DHT22;29895;48.804;9.386;2023-10-19T10:18:41;17.30;99.90
44223;DHT22;29895;48.804;9.386;2023-10-19T10:21:18;17.20;99.90
44223;DHT22;29895;48.804;9.386;2023-10-19T10:26:16;17.40;99.90
44223;DHT22;29895;48.804;9.386;2023-10-19T10:28:47;17.60;99.90
44223;DHT22;29895;48.804;9.386;2023-10-19T10:31:21;17.80;99.90
44223;DHT22;29895;48.804;9.386;2023-10-19T10:33:54;18.00;99.90
44223;DHT22;29895;48.804;9.386;2023-10-19T10:36:23;17.80;99.90
44223;DHT22;29895;48.804;9.386;2023-10-19T10:38:50;17.70;99.90
44223;DHT22;29895;48.804;9.386;2023-10-19T10:41:25;17.70;99.90
44223;DHT22;29895;48.804;9.386;2023-10-19T10:43:58;17.60;99.90
44223;DHT22;29895;48.804;9.386;2023-10-19T10:46:25;17.70;99.90
44223;DHT22;29895;48.804;9.386;2023-10-19T10:48:52;17.70;99.90
44223;DHT22;29895;48.804;9.386;2023-10-19T10:51:28;17.90;99.90
44223;DHT22;29895;48.804;9.386;2023-10-19T10:53:57;18.00;99.90
44223;DHT22;29895;48.804;9.386;2023-10-19T10:56:23;18.10;99.90
44223;DHT22;29895;48.804;9.386;2023-10-19T10:58:50;18.30;99.90
44223;DHT22;29895;48.804;9.386;2023-10-19T11:01:27;18.40;99.90
44223;DHT22;29895;48.804;9.386;2023-10-19T11:04:05;18.50;99.90
44223;DHT22;29895;48.804;9.386;2023-10-19T11:06:31;18.50;99.90
44223;DHT22;29895;48.804;9.386;2023-10-19T11:08:57;18.40;99.90
44223;DHT22;29895;48.804;9.386;2023-10-19T11:11:22;18.50;99.90
44223;DHT22;29895;48.804;9.386;2023-10-19T11:13:48;18.30;99.90
44223;DHT22;29895;48.804;9.386;2023-10-19T11:16:22;18.10;99.90
44223;DHT22;29895;48.804;9.386;2023-10-19T11:18:49;18.00;99.90
44223;DHT22;29895;48.804;9.386;2023-10-19T11:21:16;18.00;99.90
44223;DHT22;29895;48.804;9.386;2023-10-19T11:23:47;17.80;99.90
44223;DHT22;29895;48.804;9.386;2023-10-19T11:26:16;17.70;99.90
44223;DHT22;29895;48.804;9.386;2023-10-19T11:28:42;17.50;99.90
44223;DHT22;29895;48.804;9.386;2023-10-19T11:31:18;17.20;99.90
44223;DHT22;29895;48.804;9.386;2023-10-19T11:33:46;17.10;99.90
44223;DHT22;29895;48.804;9.386;2023-10-19T11:36:12;17.00;99.90
44223;DHT22;29895;48.804;9.386;2023-10-19T11:38:40;16.80;99.90
44223;DHT22;29895;48.804;9.386;2023-10-19T11:41:06;16.70;99.90
44223;DHT22;29895;48.804;9.386;2023-10-19T11:43:33;16.70;99.90
44223;DHT22;29895;48.804;9.386;2023-10-19T11:46:00;16.60;99.90
44223;DHT22;29895;48.804;9.386;2023-10-19T11:48:26;16.50;99.90
44223;DHT22;29895;48.804;9.386;2023-10-19T11:50:51;16.50;99.90
44223;DHT22;29895;48.804;9.386;2023-10-19T11:53:19;16.40;99.90
44223;DHT22;29895;48.804;9.386;2023-10-19T11:55:45;16.30;99.90
44223;DHT22;29895;48.804;9.386;2023-10-19T11:58:14;16.30;99.90
44223;DHT22;29895;48.804;9.386;2023-10-19T12:00:40;16.30;99.90
44223;DHT22;29895;48.804;9.386;2023-10-19T12:03:09;16.30;99.90
44223;DHT22;29895;48.804;9.386;2023-10-19T12:05:37;16.30;99.90
44223;DHT22;29895;48.804;9.386;2023-10-19T12:08:03;16.20;99.90
44223;DHT22;29895;48.804;9.386;2023-10-19T12:10:29;16.20;99.90
44223;DHT22;29895;48.804;9.386;2023-10-19T12:13:09;16.20;99.90
44223;DHT22;29895;48.804;9.386;2023-10-19T12:15:35;16.20;99.90
44223;DHT22;29895;48.804;9.386;2023-10-19T12:18:01;16.30;99.90
44223;DHT22;29895;48.804;9.386;2023-10-19T12:20:31;16.30;99.90
44223;DHT22;29895;48.804;9.386;2023-10-19T12:22:57;16.30;99.90
44223;DHT22;29895;48.804;9.386;2023-10-19T12:25:25;16.20;99.90
44223;DHT22;29895;48.804;9.386;2023-10-19T12:28:00;16.10;99.90
44223;DHT22;29895;48.804;9.386;2023-10-19T12:30:26;16.10;99.90
44223;DHT22;29895;48.804;9.386;2023-10-19T12:33:01;16.20;99.90
44223;DHT22;29895;48.804;9.386;2023-10-19T12:35:27;16.20;99.90
44223;DHT22;29895;48.804;9.386;2023-10-19T12:38:11;16.20;99.90
44223;DHT22;29895;48.804;9.386;2023-10-19T12:40:45;16.20;99.90
44223;DHT22;29895;48.804;9.386;2023-10-19T12:43:12;16.20;99.90
44223;DHT22;29895;48.804;9.386;2023-10-19T12:45:39;16.10;99.90
44223;DHT22;29895;48.804;9.386;2023-10-19T12:48:06;16.20;99.90
44223;DHT22;29895;48.804;9.386;2023-10-19T12:50:34;16.20;99.90
44223;DHT22;29895;48.804;9.386;2023-10-19T12:53:00;16.20;99.90
44223;DHT22;29895;48.804;9.386;2023-10-19T12:55:26;16.20;99.90
44223;DHT22;29895;48.804;9.386;2023-10-19T12:57:53;16.10;99.90
44223;DHT22;29895;48.804;9.386;2023-10-19T13:00:19;16.00;99.90
44223;DHT22;29895;48.804;9.386;2023-10-19T13:03:04;16.00;99.90
44223;DHT22;29895;48.804;9.386;2023-10-19T13:05:36;15.90;99.90
44223;DHT22;29895;48.804;9.386;2023-10-19T13:08:21;15.90;99.90
44223;DHT22;29895;48.804;9.386;2023-10-19T13:10:47;15.80;99.90
44223;DHT22;29895;48.804;9.386;2023-10-19T13:13:14;15.80;99.90
44223;DHT22;29895;48.804;9.386;2023-10-19T13:15:44;15.80;99.90
44223;DHT22;29895;48.804;9.386;2023-10-19T13:18:11;15.80;99.90
44223;DHT22;29895;48.804;9.386;2023-10-19T13:20:39;15.80;99.90
44223;DHT22;29895;48.804;9.386;2023-10-19T13:23:09;15.80;99.90
44223;DHT22;29895;48.804;9.386;2023-10-19T13:25:41;15.90;99.90
44223;DHT22;29895;48.804;9.386;2023-10-19T13:28:12;15.90;99.90
44223;DHT22;29895;48.804;9.386;2023-10-19T13:30:45;15.90;99.90
44223;DHT22;29895;48.804;9.386;2023-10-19T13:33:13;15.90;99.90
44223;DHT22;29895;48.804;9.386;2023-10-19T13:35:40;15.90;99.90
44223;DHT22;29895;48.804;9.386;2023-10-19T13:38:08;16.00;99.90
44223;DHT22;29895;48.804;9.386;2023-10-19T13:40:35;16.10;99.90
44223;DHT22;29895;48.804;9.386;2023-10-19T13:43:02;16.10;99.90
44223;DHT22;29895;48.804;9.386;2023-10-19T13:45:31;16.20;99.90
44223;DHT22;29895;48.804;9.386;2023-10-19T13:47:57;16.20;99.90
44223;DHT22;29895;48.804;9.386;2023-10-19T13:50:24;16.20;99.90
44223;DHT22;29895;48.804;9.386;2023-10-19T13:52:53;16.20;99.90
44223;DHT22;29895;48.804;9.386;2023-10-19T13:55:19;16.20;99.90
44223;DHT22;29895;48.804;9.386;2023-10-19T13:57:46;16.10;99.90
44223;DHT22;29895;48.804;9.386;2023-10-19T14:00:14;16.00;99.90
44223;DHT22;29895;48.804;9.386;2023-10-19T14:02:59;16.00;99.90
44223;DHT22;29895;48.804;9.386;2023-10-19T14:05:27;15.90;99.90
44223;DHT22;29895;48.804;9.386;2023-10-19T14:07:53;16.00;99.90
44223;DHT22;29895;48.804;9.386;2023-10-19T14:10:19;15.90;99.90
44223;DHT22;29895;48.804;9.386;2023-10-19T14:12:46;15.90;99.90
44223;DHT22;29895;48.804;9.386;2023-10-19T14:15:16;15.90;99.90
44223;DHT22;29895;48.804;9.386;2023-10-19T14:17:43;15.90;99.90
44223;DHT22;29895;48.804;9.386;2023-10-19T14:20:10;16.00;99.90
44223;DHT22;29895;48.804;9.386;2023-10-19T14:25:07;16.00;99.90
44223;DHT22;29895;48.804;9.386;2023-10-19T14:27:34;15.90;99.90
44223;DHT22;29895;48.804;9.386;2023-10-19T14:30:03;15.90;99.90
44223;DHT22;29895;48.804;9.386;2023-10-19T14:32:29;15.90;99.90
44223;DHT22;29895;48.804;9.386;2023-10-19T14:34:55;15.90;99.90
44223;DHT22;29895;48.804;9.386;2023-10-19T14:37:21;15.80;99.90
44223;DHT22;29895;48.804;9.386;2023-10-19T14:39:47;15.80;99.90
44223;DHT22;29895;48.804;9.386;2023-10-19T14:42:12;15.80;99.90
44223;DHT22;29895;48.804;9.386;2023-10-19T14:44:38;15.80;99.90
44223;DHT22;29895;48.804;9.386;2023-10-19T14:47:05;15.80;99.90
44223;DHT22;29895;48.804;9.386;2023-10-19T14:49:31;15.70;99.90
44223;DHT22;29895;48.804;9.386;2023-10-19T14:51:58;15.70;99.90
44223;DHT22;29895;48.804;9.386;2023-10-19T14:54:23;15.70;99.90
44223;DHT22;29895;48.804;9.386;2023-10-19T14:56:49;15.70;99.90
44223;DHT22;29895;48.804;9.386;2023-10-19T14:59:15;15.70;99.90
44223;DHT22;29895;48.804;9.386;2023-10-19T15:01:40;15.70;99.90
44223;DHT22;29895;48.804;9.386;2023-10-19T15:04:06;15.70;99.90
44223;DHT22;29895;48.804;9.386;2023-10-19T15:06:32;15.70;99.90
44223;DHT22;29895;48.804;9.386;2023-10-19T15:08:57;15.70;99.90
44223;DHT22;29895;48.804;9.386;2023-10-19T15:11:23;15.70;99.90
44223;DHT22;29895;48.804;9.386;2023-10-19T15:13:50;15.60;99.90
44223;DHT22;29895;48.804;9.386;2023-10-19T15:16:16;15.60;99.90
44223;DHT22;29895;48.804;9.386;2023-10-19T15:18:42;15.70;99.90
44223;DHT22;29895;48.804;9.386;2023-10-19T15:21:09;15.70;99.90
44223;DHT22;29895;48.804;9.386;2023-10-19T15:23:35;15.70;99.90
44223;DHT22;29895;48.804;9.386;2023-10-19T15:26:01;15.70;99.90
44223;DHT22;29895;48.804;9.386;2023-10-19T15:28:27;15.80;99.90
44223;DHT22;29895;48.804;9.386;2023-10-19T15:30:58;15.80;99.90
44223;DHT22;29895;48.804;9.386;2023-10-19T15:33:28;15.80;99.90
44223;DHT22;29895;48.804;9.386;2023-10-19T15:35:55;15.80;99.90
44223;DHT22;29895;48.804;9.386;2023-10-19T15:38:21;15.80;99.90
44223;DHT22;29895;48.804;9.386;2023-10-19T15:40:48;15.80;99.90
44223;DHT22;29895;48.804;9.386;2023-10-19T15:43:14;15.70;99.90
44223;DHT22;29895;48.804;9.386;2023-10-19T15:45:40;15.70;99.90